Time;durP1;ratioP1;P1;durP2;ratioP2;P2;SDS_P1;SDS_P2;PMS_P1;PMS_P2;Temp;Humidity;BMP_temperature;BMP_pressure;BME280_temperature;BME280_humidity;BME280_pressure;Samples;Min_cycle;Max_cycle;Signal;HPM_P1;HPM_P2
2022/03/21 00:00:10;;;;;;;6.67;3.20;;;;;;;-4.02;58.91;97750.22;1713620;84;21037;-66
2022/03/21 00:02:41;;;;;;;13.73;6.37;;;;;;;-4.31;59.99;97748.98;1716247;83;21001;-66
2022/03/21 00:05:10;;;;;;;10.53;5.73;;;;;;;-4.41;59.73;97750.02;1716410;84;21510;-66
2022/03/21 00:07:37;;;;;;;10.57;6.03;;;;;;;-4.38;59.61;97745.48;1716503;84;21012;-66
2022/03/21 00:10:04;;;;;;;12.27;6.20;;;;;;;-4.46;59.65;97741.42;1716351;83;21522;-66
2022/03/21 00:12:33;;;;;;;11.37;6.27;;;;;;;-4.44;59.43;97742.03;1716301;84;21610;-66
2022/03/21 00:14:59;;;;;;;11.43;6.27;;;;;;;-4.38;59.23;97746.77;1716522;84;21012;-66
2022/03/21 00:17:25;;;;;;;9.17;5.07;;;;;;;-4.35;58.66;97748.28;1716161;84;21040;-66
2022/03/21 00:19:52;;;;;;;12.07;6.27;;;;;;;-4.39;58.95;97748.42;1715918;83;21108;-66
2022/03/21 00:22:20;;;;;;;16.60;6.60;;;;;;;-4.58;59.40;97750.45;1716142;84;21025;-66
2022/03/21 00:24:49;;;;;;;11.60;6.57;;;;;;;-4.59;59.47;97743.13;1716956;83;21021;-66
2022/03/21 00:27:15;;;;;;;10.10;6.23;;;;;;;-4.52;59.51;97751.29;1715863;83;20990;-66
2022/03/21 00:29:43;;;;;;;11.73;7.00;;;;;;;-4.47;58.95;97747.38;1716575;83;21032;-66
2022/03/21 00:32:10;;;;;;;12.83;6.93;;;;;;;-4.49;58.91;97747.24;1715972;83;21065;-66
2022/03/21 00:34:37;;;;;;;13.10;6.73;;;;;;;-4.46;59.35;97744.92;1716222;84;20989;-66
2022/03/21 00:37:04;;;;;;;13.27;7.07;;;;;;;-4.41;59.80;97746.52;1716362;83;21052;-66
2022/03/21 00:39:31;;;;;;;12.53;6.87;;;;;;;-4.37;59.70;97748.55;1716409;83;21503;-66
2022/03/21 00:41:58;;;;;;;19.03;6.60;;;;;;;-4.41;59.58;97742.29;1715853;84;21080;-66
2022/03/21 00:44:24;;;;;;;11.83;6.30;;;;;;;-4.43;59.25;97745.54;1716339;83;20996;-66
2022/03/21 00:46:51;;;;;;;12.73;6.23;;;;;;;-4.40;58.81;97747.94;1716278;83;21084;-66
2022/03/21 00:49:17;;;;;;;11.83;6.37;;;;;;;-4.39;58.59;97757.84;1716391;84;21016;-66
2022/03/21 00:51:44;;;;;;;13.63;6.77;;;;;;;-4.40;59.05;97759.53;1716312;84;21001;-66
2022/03/21 00:54:11;;;;;;;10.33;6.70;;;;;;;-4.56;60.33;97755.33;1716466;84;21534;-66
2022/03/21 00:56:37;;;;;;;13.40;6.30;;;;;;;-4.69;59.83;97747.05;1716551;83;21008;-66
2022/03/21 00:59:04;;;;;;;14.90;6.77;;;;;;;-4.64;59.54;97757.31;1716528;83;21499;-66
2022/03/21 01:01:32;;;;;;;12.33;6.47;;;;;;;-4.57;59.70;97758.67;1716143;84;21060;-66
2022/03/21 01:03:58;;;;;;;12.33;6.77;;;;;;;-4.67;59.58;97765.22;1716646;84;21452;-66
2022/03/21 01:06:25;;;;;;;11.10;6.67;;;;;;;-4.88;59.88;97762.83;1716500;83;21052;-66
2022/03/21 01:08:52;;;;;;;11.57;6.77;;;;;;;-4.92;60.37;97757.33;1716173;84;21052;-66
2022/03/21 01:11:18;;;;;;;13.17;6.87;;;;;;;-4.88;60.24;97757.68;1716778;83;21017;-66
2022/03/21 01:13:45;;;;;;;16.43;7.50;;;;;;;-4.87;60.14;97762.03;1716809;83;21036;-66
2022/03/21 01:16:13;;;;;;;15.80;8.20;;;;;;;-4.78;60.96;97756.70;1715968;84;21057;-66
2022/03/21 01:18:40;;;;;;;11.60;7.27;;;;;;;-4.83;61.81;97761.89;1716448;83;21035;-66
2022/03/21 01:21:06;;;;;;;14.53;7.20;;;;;;;-4.87;60.96;97755.59;1716418;84;21557;-66
2022/03/21 01:23:33;;;;;;;13.43;7.23;;;;;;;-4.80;61.25;97757.85;1716515;84;21017;-66
2022/03/21 01:26:00;;;;;;;12.63;7.57;;;;;;;-4.89;60.94;97753.69;1716403;84;21017;-66
2022/03/21 01:28:27;;;;;;;19.73;8.90;;;;;;;-5.00;63.25;97752.48;1716175;83;21122;-66
2022/03/21 01:30:53;;;;;;;17.20;7.73;;;;;;;-5.00;63.34;97749.02;1716329;84;20985;-67
2022/03/21 01:33:20;;;;;;;12.20;6.13;;;;;;;-4.94;62.43;97748.19;1716488;84;21017;-66
2022/03/21 01:35:47;;;;;;;10.47;6.60;;;;;;;-4.86;61.51;97734.63;1716502;84;21028;-65
2022/03/21 01:38:14;;;;;;;10.37;5.10;;;;;;;-4.86;61.16;97744.93;1716383;84;21495;-66
2022/03/21 01:40:41;;;;;;;14.00;6.40;;;;;;;-4.87;61.96;97745.69;1716471;83;21519;-66
2022/03/21 01:43:12;;;;;;;11.47;6.40;;;;;;;-5.03;62.37;97744.94;1716588;83;21008;-65
2022/03/21 01:45:39;;;;;;;19.23;6.93;;;;;;;-5.14;62.48;97738.06;1716244;84;21018;-65
2022/03/21 01:48:07;;;;;;;11.83;6.57;;;;;;;-5.19;61.85;97745.83;1716157;84;21534;-66
2022/03/21 01:50:34;;;;;;;13.10;6.47;;;;;;;-5.32;63.33;97742.31;1716183;84;21021;-66
2022/03/21 01:55:48;;;;;;;21.83;8.10;;;;;;;-5.30;64.03;97749.77;1716409;83;21518;-66
2022/03/21 01:58:16;;;;;;;14.67;7.23;;;;;;;-5.25;63.81;97744.97;1716301;84;21033;-65
2022/03/21 02:00:45;;;;;;;10.60;5.70;;;;;;;-5.15;62.81;97735.89;1716464;83;21036;-66
2022/03/21 02:03:14;;;;;;;10.87;6.97;;;;;;;-5.14;62.54;97734.20;1716332;84;21064;-65
2022/03/21 02:05:45;;;;;;;14.70;7.33;;;;;;;-5.12;62.15;97732.64;1716305;83;21028;-66
2022/03/21 02:08:11;;;;;;;13.20;7.20;;;;;;;-5.05;61.74;97733.23;1716515;84;21521;-65
2022/03/21 02:10:38;;;;;;;11.93;7.13;;;;;;;-5.06;62.11;97734.41;1716434;83;21068;-66
2022/03/21 02:13:06;;;;;;;23.27;12.13;;;;;;;-5.09;62.40;97726.08;1716206;84;21518;-66
2022/03/21 02:15:34;;;;;;;10.83;6.93;;;;;;;-5.18;63.14;97724.48;1716680;83;21004;-66
2022/03/21 02:18:03;;;;;;;14.67;7.50;;;;;;;-5.23;62.54;97723.72;1716491;84;21053;-66
2022/03/21 02:20:35;;;;;;;11.97;7.10;;;;;;;-5.18;62.40;97724.48;1716273;84;21538;-66
2022/03/21 02:23:19;;;;;;;10.87;6.57;;;;;;;-5.31;62.96;97726.11;1716408;83;21564;-66
2022/03/21 02:25:48;;;;;;;13.33;7.00;;;;;;;-5.34;62.38;97727.53;1716333;84;21032;-66
2022/03/21 02:28:18;;;;;;;15.73;8.13;;;;;;;-5.39;62.35;97725.92;1716627;84;21025;-66
2022/03/21 02:30:49;;;;;;;15.80;7.57;;;;;;;-5.34;62.48;97727.17;1716357;83;21040;-65
2022/03/21 02:33:17;;;;;;;12.63;6.77;;;;;;;-5.45;62.76;97735.72;1716092;83;21534;-65
2022/03/21 02:35:48;;;;;;;14.77;7.27;;;;;;;-5.46;62.31;97726.23;1716126;84;21096;-66
2022/03/21 02:38:18;;;;;;;12.00;7.07;;;;;;;-5.41;62.19;97736.48;1716708;84;21017;-67
2022/03/21 02:40:45;;;;;;;14.23;7.27;;;;;;;-5.36;62.31;97732.98;1716337;84;21042;-66
2022/03/21 02:43:12;;;;;;;13.73;7.37;;;;;;;-5.33;61.93;97737.06;1716432;84;21043;-66
2022/03/21 02:45:40;;;;;;;16.40;7.43;;;;;;;-5.29;62.51;97745.51;1716446;84;21009;-66
2022/03/21 02:48:07;;;;;;;15.00;7.40;;;;;;;-5.26;62.13;97730.33;1716152;84;21029;-67
2022/03/21 02:51:00;;;;;;;13.63;7.20;;;;;;;-5.42;62.19;97728.23;1716483;84;21510;-66
2022/03/21 02:53:30;;;;;;;14.43;8.17;;;;;;;-5.56;62.48;97731.44;1716373;84;21005;-66
2022/03/21 02:55:57;;;;;;;13.60;7.93;;;;;;;-5.62;63.07;97727.98;1716410;84;21021;-66
2022/03/21 02:58:25;;;;;;;24.03;8.07;;;;;;;-5.63;63.58;97724.91;1716440;84;21025;-67
2022/03/21 03:00:51;;;;;;;14.87;7.50;;;;;;;-5.57;63.10;97721.91;1716306;84;21539;-67
2022/03/21 03:03:18;;;;;;;10.93;6.17;;;;;;;-5.62;63.30;97725.41;1716195;84;21084;-67
2022/03/21 03:05:45;;;;;;;11.83;7.20;;;;;;;-5.60;63.39;97724.25;1716531;84;21013;-67
2022/03/21 03:08:11;;;;;;;14.23;7.37;;;;;;;-5.69;63.24;97733.06;1716225;84;21048;-67
2022/03/21 03:10:38;;;;;;;13.37;6.97;;;;;;;-5.65;63.25;97731.61;1716071;84;21067;-67
2022/03/21 03:13:05;;;;;;;14.93;7.67;;;;;;;-5.65;62.88;97732.50;1716448;83;21013;-67
2022/03/21 03:15:32;;;;;;;15.40;7.70;;;;;;;-5.63;62.99;97730.45;1716195;84;21024;-66
2022/03/21 03:17:59;;;;;;;18.87;7.87;;;;;;;-5.62;63.12;97719.38;1716233;83;21499;-66
2022/03/21 03:20:25;;;;;;;12.30;7.33;;;;;;;-5.74;65.37;97730.52;1716207;84;21032;-66
2022/03/21 03:22:53;;;;;;;13.10;7.00;;;;;;;-5.84;64.35;97728.41;1711156;84;21579;-66
2022/03/21 03:25:20;;;;;;;13.70;7.43;;;;;;;-5.82;64.98;97724.25;1708134;84;21028;-66
2022/03/21 03:27:47;;;;;;;13.10;6.93;;;;;;;-5.87;65.23;97723.52;1707707;84;21037;-66
2022/03/21 03:30:14;;;;;;;14.23;7.77;;;;;;;-5.79;64.12;97718.09;1707804;84;21037;-66
2022/03/21 03:32:41;;;;;;;18.07;8.30;;;;;;;-5.72;63.89;97726.39;1707883;84;21460;-67
2022/03/21 03:35:09;;;;;;;14.00;7.50;;;;;;;-5.66;63.53;97721.72;1708030;84;21072;-66
2022/03/21 03:37:36;;;;;;;12.23;7.50;;;;;;;-5.58;63.46;97724.88;1707884;84;21012;-67
2022/03/21 03:40:05;;;;;;;13.23;7.37;;;;;;;-5.58;64.30;97723.98;1707918;84;21033;-67
2022/03/21 03:42:32;;;;;;;10.97;5.93;;;;;;;-5.54;63.59;97724.35;1707950;84;21032;-67
2022/03/21 03:44:59;;;;;;;17.33;8.10;;;;;;;-5.59;64.04;97725.67;1707889;84;21053;-67
2022/03/21 03:47:26;;;;;;;12.33;7.00;;;;;;;-5.68;63.83;97727.52;1708209;84;20954;-67
2022/03/21 03:49:52;;;;;;;12.80;6.57;;;;;;;-5.69;63.63;97733.06;1707770;84;21053;-67
2022/03/21 03:52:19;;;;;;;17.17;7.27;;;;;;;-5.65;63.65;97732.50;1708054;84;21005;-67
2022/03/21 03:54:46;;;;;;;15.23;7.30;;;;;;;-5.71;63.18;97736.28;1708188;84;21025;-67
2022/03/21 03:57:14;;;;;;;19.23;7.97;;;;;;;-5.78;64.81;97738.76;1707967;84;21037;-66
2022/03/21 03:59:42;;;;;;;14.03;7.33;;;;;;;-5.87;65.11;97749.62;1707773;84;21836;-67
2022/03/21 04:02:10;;;;;;;16.30;7.70;;;;;;;-5.86;64.56;97744.98;1707907;84;21041;-67
2022/03/21 04:04:37;;;;;;;16.50;8.23;;;;;;;-5.78;64.18;97746.86;1707874;84;21025;-66
2022/03/21 04:07:04;;;;;;;12.77;7.13;;;;;;;-5.72;64.06;97744.40;1708078;84;21052;-67
2022/03/21 04:09:30;;;;;;;14.23;7.33;;;;;;;-5.74;63.76;97747.63;1707979;84;21041;-67
2022/03/21 04:11:57;;;;;;;13.37;7.37;;;;;;;-5.75;63.68;97742.84;1707739;84;20997;-66
2022/03/21 04:14:24;;;;;;;13.13;7.37;;;;;;;-5.74;63.54;97743.38;1708015;84;21028;-66
2022/03/21 04:16:50;;;;;;;16.13;7.73;;;;;;;-5.68;63.79;97743.84;1708180;84;20985;-67
2022/03/21 04:19:17;;;;;;;14.17;7.37;;;;;;;-5.76;65.41;97746.60;1707752;84;21026;-67
2022/03/21 04:21:44;;;;;;;16.70;9.03;;;;;;;-5.88;65.59;97747.81;1708078;84;21005;-68
2022/03/21 04:24:10;;;;;;;13.43;7.40;;;;;;;-5.97;65.59;97747.11;1716642;84;21045;-67
2022/03/21 04:26:37;;;;;;;17.30;8.37;;;;;;;-6.02;67.39;97750.98;1716515;84;21545;-67
2022/03/21 04:29:05;;;;;;;14.60;7.73;;;;;;;-5.97;66.84;97751.89;1716430;84;21013;-67
2022/03/21 04:31:33;;;;;;;12.57;6.97;;;;;;;-5.93;65.86;97753.87;1716438;84;21060;-67
2022/03/21 04:34:00;;;;;;;16.70;7.03;;;;;;;-5.81;65.49;97760.37;1716366;84;21507;-66
2022/03/21 04:36:28;;;;;;;16.53;8.30;;;;;;;-5.74;64.95;97756.23;1716220;84;21036;-66
2022/03/21 04:38:54;;;;;;;17.30;8.37;;;;;;;-5.69;64.59;97754.02;1716422;84;21032;-66
2022/03/21 04:41:21;;;;;;;14.37;7.30;;;;;;;-5.70;64.38;97754.78;1716470;84;21487;-66
2022/03/21 04:43:48;;;;;;;17.60;7.83;;;;;;;-5.80;65.17;97749.70;1716557;84;21000;-66
2022/03/21 04:46:14;;;;;;;11.93;6.70;;;;;;;-5.87;65.80;97758.23;1716412;84;21503;-65
2022/03/21 04:48:41;;;;;;;13.50;7.23;;;;;;;-5.92;65.30;97749.25;1692177;84;21052;-66
2022/03/21 04:51:08;;;;;;;11.83;6.73;;;;;;;-5.92;65.55;97754.39;1716774;84;20989;-66
2022/03/21 04:53:34;;;;;;;24.23;12.33;;;;;;;-5.87;66.60;97758.23;1716537;83;21017;-65
2022/03/21 04:56:01;;;;;;;31.67;12.43;;;;;;;-5.83;67.18;97758.46;1698446;84;21527;-66
2022/03/21 04:58:27;;;;;;;10.63;5.93;;;;;;;-5.87;66.77;97761.20;1716539;83;21032;-65
2022/03/21 05:00:54;;;;;;;10.60;6.20;;;;;;;-5.80;66.52;97767.30;1716271;84;21064;-66
2022/03/21 05:03:21;;;;;;;12.83;6.67;;;;;;;-5.84;67.17;97765.68;1716396;84;21025;-66
2022/03/21 05:05:48;;;;;;;16.63;7.97;;;;;;;-5.70;66.62;97764.67;1716418;83;21067;-66
2022/03/21 05:08:15;;;;;;;22.40;10.20;;;;;;;-5.66;66.98;97760.29;1716533;84;21069;-66
2022/03/21 05:10:42;;;;;;;25.97;13.20;;;;;;;-5.67;67.63;97754.66;1716500;83;21028;-65
2022/03/21 05:13:09;;;;;;;35.30;12.93;;;;;;;-5.56;67.56;97756.77;1716749;84;21004;-66
2022/03/21 05:15:36;;;;;;;61.97;23.37;;;;;;;-5.47;67.26;97757.86;1716423;83;21060;-66
2022/03/21 05:18:04;;;;;;;93.57;30.70;;;;;;;-5.32;66.89;97762.89;1716425;83;20997;-66
2022/03/21 05:20:31;;;;;;;38.77;15.80;;;;;;;-5.28;66.15;97752.07;1716841;83;21009;-66
2022/03/21 05:31:13;;;;;;;52.07;25.40;;;;;;;-4.94;66.29;97750.76;1716552;83;21001;-66
2022/03/21 05:36:26;;;;;;;36.40;16.77;;;;;;;-4.80;66.10;97755.67;1716578;83;20988;-66
2022/03/21 05:38:54;;;;;;;26.93;13.73;;;;;;;-4.61;65.81;97749.84;1692252;84;21479;-65
2022/03/21 05:41:21;;;;;;;28.23;15.93;;;;;;;-4.52;66.28;97760.30;1698455;84;20973;-66
2022/03/21 05:43:49;;;;;;;32.40;16.57;;;;;;;-4.50;66.34;97758.75;1716084;84;20990;-66
2022/03/21 05:46:16;;;;;;;37.00;18.63;;;;;;;-4.36;66.75;97764.14;1716518;83;21016;-66
2022/03/21 05:48:54;;;;;;;37.67;20.23;;;;;;;-4.23;65.78;97761.17;1716032;84;21021;-66
2022/03/21 05:51:28;;;;;;;41.57;19.93;;;;;;;-4.16;66.31;97759.52;1716627;84;21056;-66
2022/03/21 05:53:56;;;;;;;38.30;19.47;;;;;;;-3.98;65.67;97762.16;1716255;83;21001;-66
2022/03/21 05:56:29;;;;;;;49.33;24.23;;;;;;;-3.97;66.57;97761.76;1716427;83;21000;-64
2022/03/21 05:58:53;;;;;;;51.77;24.30;;;;;;;-3.88;65.78;97765.01;1715765;83;21530;-65
2022/03/21 06:01:24;;;;;;;43.27;23.00;;;;;;;-3.65;65.60;97775.67;1715712;83;21001;-66
2022/03/21 06:03:53;;;;;;;45.40;22.87;;;;;;;-3.49;65.22;97774.66;1715170;83;21078;-63
2022/03/21 06:06:21;;;;;;;51.23;27.13;;;;;;;-3.29;65.39;97776.05;1715677;83;21069;-64
2022/03/21 06:08:49;;;;;;;42.17;23.80;;;;;;;-3.08;65.05;97777.03;1715752;83;21095;-65
2022/03/21 06:11:16;;;;;;;40.07;19.93;;;;;;;-2.90;64.31;97779.98;1716020;83;21068;-64
2022/03/21 06:13:43;;;;;;;44.90;22.93;;;;;;;-2.75;63.86;97773.67;1716436;83;21004;-69
2022/03/21 06:16:11;;;;;;;46.87;24.77;;;;;;;-2.78;62.67;97776.94;1715065;83;21059;-64
2022/03/21 06:18:39;;;;;;;48.60;26.37;;;;;;;-2.61;63.24;97771.22;1715052;84;21068;-67
2022/03/21 06:21:08;;;;;;;36.37;19.87;;;;;;;-2.39;62.65;97776.55;1715627;83;21036;-66
2022/03/21 06:23:35;;;;;;;34.40;19.23;;;;;;;-2.31;62.30;97766.70;1711395;84;21530;-67
2022/03/21 06:26:03;;;;;;;33.33;17.97;;;;;;;-2.15;62.11;97770.78;1707748;84;21044;-67
2022/03/21 06:28:30;;;;;;;29.97;16.10;;;;;;;-2.03;61.00;97770.69;1707873;84;21471;-65
2022/03/21 06:30:57;;;;;;;27.47;13.77;;;;;;;-1.86;60.19;97770.09;1707850;84;20986;-67
2022/03/21 06:33:28;;;;;;;22.83;12.97;;;;;;;-1.72;59.60;97767.48;1706726;84;21477;-65
2022/03/21 06:35:56;;;;;;;24.10;13.07;;;;;;;-1.57;58.43;97765.45;1706563;84;21084;-66
2022/03/21 06:38:23;;;;;;;24.30;13.93;;;;;;;-1.48;56.50;97766.86;1707419;84;21029;-64
2022/03/21 06:40:50;;;;;;;22.03;11.57;;;;;;;-1.38;56.29;97768.81;1707091;84;21107;-66
2022/03/21 06:43:20;;;;;;;21.17;12.00;;;;;;;-1.23;56.16;97766.28;1707662;84;21456;-64
2022/03/21 06:45:54;;;;;;;20.83;12.07;;;;;;;-1.04;55.87;97764.80;1707798;84;21017;-65
2022/03/21 06:48:23;;;;;;;50.07;30.23;;;;;;;-0.94;55.71;97768.04;1707894;84;20965;-67
2022/03/21 06:50:53;;;;;;;22.50;13.20;;;;;;;-0.82;56.12;97769.59;1707786;84;21111;-67
2022/03/21 06:53:20;;;;;;;24.77;12.80;;;;;;;-0.69;55.80;97774.30;1707531;84;21107;-64
2022/03/21 06:55:47;;;;;;;24.50;12.83;;;;;;;-0.60;55.44;97768.78;1707121;84;21025;-68
2022/03/21 06:58:15;;;;;;;28.57;18.67;;;;;;;-0.48;55.55;97774.70;1707768;84;21479;-65
2022/03/21 07:00:45;;;;;;;21.90;14.63;;;;;;;-0.31;55.31;97774.37;1707798;84;21045;-68
2022/03/21 07:03:15;;;;;;;22.33;13.80;;;;;;;-0.16;55.74;97764.41;1707887;84;21072;-64
2022/03/21 07:05:42;;;;;;;24.73;13.77;;;;;;;-0.03;54.74;97767.77;1707574;84;21032;-65
2022/03/21 07:08:09;;;;;;;24.40;14.70;;;;;;;0.12;54.90;97773.35;1707814;84;21516;-65
2022/03/21 07:10:40;;;;;;;19.80;13.17;;;;;;;0.34;54.92;97767.27;1707485;84;21068;-67
2022/03/21 07:13:05;;;;;;;26.07;14.50;;;;;;;0.58;54.47;97761.25;1706665;84;21044;-66
2022/03/21 07:15:32;;;;;;;25.57;13.77;;;;;;;0.75;54.50;97760.84;1706940;84;21075;-66
2022/03/21 07:17:58;;;;;;;24.00;13.27;;;;;;;0.92;53.13;97765.66;1706415;84;22182;-67
2022/03/21 07:20:26;;;;;;;21.87;12.70;;;;;;;1.11;53.88;97761.42;1707079;84;21017;-67
2022/03/21 07:22:54;;;;;;;19.63;12.67;;;;;;;1.30;53.40;97760.28;1707931;84;21063;-67
2022/03/21 07:25:21;;;;;;;27.60;11.60;;;;;;;1.50;52.89;97751.80;1716373;84;21025;-68
2022/03/21 07:27:48;;;;;;;23.07;13.30;;;;;;;1.64;49.50;97749.03;1714938;83;21676;-69
2022/03/21 07:30:16;;;;;;;19.50;11.57;;;;;;;1.81;51.26;97744.64;1715170;84;21083;-67
2022/03/21 07:32:43;;;;;;;18.97;12.00;;;;;;;1.98;50.16;97741.58;1715481;83;21107;-67
2022/03/21 07:35:12;;;;;;;21.87;12.83;;;;;;;2.12;48.95;97731.02;1714752;84;21366;-68
2022/03/21 07:37:42;;;;;;;18.33;12.30;;;;;;;2.31;49.29;97726.69;1715739;84;21048;-67
2022/03/21 07:40:11;;;;;;;18.90;11.20;;;;;;;2.51;49.66;97729.82;1714771;84;21020;-66
2022/03/21 07:42:40;;;;;;;20.83;11.00;;;;;;;2.73;49.65;97722.59;1715310;83;21534;-68
2022/03/21 07:47:54;;;;;;;19.10;12.67;;;;;;;3.11;48.21;97726.05;1714424;83;21052;-67
2022/03/21 07:50:23;;;;;;;16.67;10.77;;;;;;;3.31;48.02;97717.80;1715342;83;21016;-68
2022/03/21 07:52:52;;;;;;;18.00;9.77;;;;;;;3.46;45.92;97717.56;1715136;83;21064;-69
2022/03/21 07:55:19;;;;;;;13.40;8.50;;;;;;;3.58;45.82;97719.41;1715134;84;21055;-66
2022/03/21 07:57:46;;;;;;;11.23;7.73;;;;;;;3.71;43.24;97719.92;1715059;83;21064;-69
2022/03/21 08:00:15;;;;;;;11.13;8.03;;;;;;;3.84;42.99;97713.95;1714922;84;21083;-67
2022/03/21 08:02:43;;;;;;;12.37;6.27;;;;;;;4.02;42.78;97721.66;1715477;84;21095;-68
2022/03/21 08:05:11;;;;;;;13.27;8.47;;;;;;;4.13;39.36;97716.86;1715781;83;21000;-66
2022/03/21 08:07:38;;;;;;;10.27;6.83;;;;;;;4.27;40.58;97717.02;1715394;84;21495;-69
2022/03/21 08:10:05;;;;;;;13.93;8.23;;;;;;;4.46;41.27;97716.42;1715574;83;21136;-72
2022/03/21 08:12:32;;;;;;;14.60;8.33;;;;;;;4.59;37.89;97710.86;1715549;83;21047;-66
2022/03/21 08:14:59;;;;;;;15.40;8.90;;;;;;;4.71;37.72;97712.64;1715405;83;21076;-67
2022/03/21 08:17:27;;;;;;;22.20;15.53;;;;;;;4.81;38.64;97711.23;1715676;83;21052;-67
2022/03/21 08:19:54;;;;;;;11.73;9.03;;;;;;;5.01;40.26;97702.83;1715500;83;21052;-66
2022/03/21 08:22:20;;;;;;;12.80;8.17;;;;;;;5.15;38.03;97705.55;1715490;84;21064;-66
2022/03/21 08:24:47;;;;;;;13.17;8.40;;;;;;;5.26;38.01;97699.80;1708968;84;21084;-66
2022/03/21 08:27:14;;;;;;;14.00;9.77;;;;;;;5.41;37.69;97709.08;1707028;84;21068;-67
2022/03/21 08:29:41;;;;;;;14.83;8.03;;;;;;;5.54;37.92;97706.47;1707278;84;21032;-66
2022/03/21 08:32:08;;;;;;;12.87;8.30;;;;;;;5.69;37.00;97694.76;1695211;84;21622;-68
2022/03/21 08:34:35;;;;;;;11.80;8.03;;;;;;;5.75;35.14;97704.16;1697065;84;21077;-67
2022/03/21 08:37:02;;;;;;;14.80;8.70;;;;;;;5.80;35.68;97706.08;1678513;84;21026;-67
2022/03/21 08:39:28;;;;;;;11.67;7.93;;;;;;;5.79;34.81;97692.92;1677037;84;20994;-67
2022/03/21 08:41:55;;;;;;;10.27;7.70;;;;;;;5.91;36.98;97699.00;1677565;85;21032;-69
2022/03/21 08:44:22;;;;;;;13.70;10.20;;;;;;;6.01;34.39;97693.25;1694096;85;21644;-65
2022/03/21 08:46:48;;;;;;;15.50;10.93;;;;;;;6.10;35.20;97697.89;1694197;84;21118;-67
2022/03/21 08:49:23;;;;;;;15.27;9.17;;;;;;;6.13;35.46;97691.04;1694093;84;21586;-67
2022/03/21 08:51:51;;;;;;;14.40;9.83;;;;;;;6.24;34.87;97695.30;1694173;84;21071;-68
2022/03/21 08:54:18;;;;;;;14.57;10.23;;;;;;;6.37;35.08;97689.60;1694250;85;21080;-69
2022/03/21 08:56:44;;;;;;;16.53;9.83;;;;;;;6.47;35.95;97686.42;1694352;85;21139;-65
2022/03/21 08:59:11;;;;;;;14.97;9.07;;;;;;;6.49;33.34;97678.61;1694501;85;21056;-67
2022/03/21 09:01:38;;;;;;;12.87;9.23;;;;;;;6.61;34.62;97685.55;1694668;84;21060;-71
2022/03/21 09:04:04;;;;;;;13.77;9.37;;;;;;;6.73;34.57;97686.35;1683747;85;21029;-66
2022/03/21 09:06:31;;;;;;;14.07;9.10;;;;;;;6.79;33.80;97685.64;1666131;84;21515;-65
2022/03/21 09:08:58;;;;;;;10.90;8.30;;;;;;;6.92;34.12;97686.45;1674624;85;21065;-64
2022/03/21 09:11:26;;;;;;;12.50;8.13;;;;;;;6.94;32.31;97674.27;1664629;86;21542;-70
2022/03/21 09:13:53;;;;;;;10.90;8.17;;;;;;;7.00;33.46;97682.73;1664118;86;21541;-68
2022/03/21 09:16:19;;;;;;;13.83;8.60;;;;;;;7.03;32.31;97671.01;1687314;85;21053;-68
2022/03/21 09:18:46;;;;;;;12.33;8.33;;;;;;;7.15;32.51;97673.55;1693778;84;21114;-68
2022/03/21 09:21:13;;;;;;;11.37;7.83;;;;;;;7.24;32.25;97664.18;1693786;84;21043;-70
2022/03/21 09:23:40;;;;;;;11.40;7.67;;;;;;;7.43;33.15;97664.24;1698386;84;21101;-72
2022/03/21 09:26:11;;;;;;;11.17;8.63;;;;;;;7.59;33.76;97667.33;1706624;84;21614;-70
2022/03/21 09:28:43;;;;;;;11.60;8.10;;;;;;;7.61;31.94;97654.64;1704164;84;21543;-69
2022/03/21 09:31:13;;;;;;;11.03;8.13;;;;;;;7.67;32.07;97654.38;1704775;84;21029;-69
2022/03/21 09:33:41;;;;;;;12.93;8.43;;;;;;;7.78;30.96;97651.59;1698110;84;20996;-68
2022/03/21 09:36:09;;;;;;;13.23;8.60;;;;;;;7.88;31.56;97654.03;1707598;84;21109;-71
2022/03/21 09:38:37;;;;;;;12.83;7.77;;;;;;;8.02;31.59;97639.92;1707184;84;21098;-71
2022/03/21 09:41:04;;;;;;;14.27;9.70;;;;;;;8.08;31.09;97648.38;1702117;84;21480;-73
2022/03/21 09:43:31;;;;;;;12.87;9.03;;;;;;;8.06;31.14;97643.51;1697704;84;20993;-68
2022/03/21 09:45:58;;;;;;;12.93;7.90;;;;;;;8.21;31.66;97643.47;1716172;83;20981;-66
2022/03/21 09:48:28;;;;;;;12.40;7.60;;;;;;;8.25;31.46;97647.05;1692800;84;21019;-68
2022/03/21 09:50:56;;;;;;;10.40;7.60;;;;;;;8.32;30.65;97655.55;1716572;83;21051;-70
2022/03/21 09:53:25;;;;;;;13.77;9.33;;;;;;;8.35;30.24;97655.61;1713571;83;21008;-70
2022/03/21 09:55:52;;;;;;;12.03;8.17;;;;;;;8.48;29.89;97642.77;1715625;83;21040;-69
2022/03/21 09:58:20;;;;;;;13.27;8.47;;;;;;;8.54;30.04;97642.50;1719306;83;21075;-70
2022/03/21 10:00:49;;;;;;;13.87;8.67;;;;;;;8.59;28.83;97636.91;1719730;83;21119;-68
2022/03/21 10:03:17;;;;;;;12.20;8.43;;;;;;;8.69;30.38;97639.71;1714003;83;20960;-68
2022/03/21 10:05:52;;;;;;;12.33;8.07;;;;;;;8.78;28.67;97642.12;1720465;83;20976;-68
2022/03/21 10:08:24;;;;;;;11.57;7.63;;;;;;;8.77;28.82;97633.77;1719792;83;20975;-68
2022/03/21 10:11:04;;;;;;;9.83;7.25;;;;;;;8.84;29.75;97631.73;1719790;83;21075;-66
2022/03/21 10:13:38;;;;;;;13.70;9.13;;;;;;;9.00;31.51;97631.61;1719743;83;21063;-66
2022/03/21 10:16:17;;;;;;;13.60;9.07;;;;;;;9.19;30.47;97638.12;1720627;83;21538;-66
2022/03/21 10:18:57;;;;;;;13.23;9.40;;;;;;;9.38;30.02;97627.52;1720746;83;20977;-66
2022/03/21 10:21:30;;;;;;;12.70;8.97;;;;;;;9.33;28.49;97628.30;1719974;83;21585;-66
2022/03/21 10:24:06;;;;;;;13.48;8.88;;;;;;;9.28;27.59;97630.84;1716959;83;21124;-66
2022/03/21 10:26:42;;;;;;;15.10;9.07;;;;;;;9.35;28.61;97632.73;1707168;84;21053;-66
2022/03/21 10:29:11;;;;;;;12.77;8.47;;;;;;;9.61;28.96;97629.25;1707863;84;21036;-66
2022/03/21 10:31:48;;;;;;;12.30;8.50;;;;;;;9.80;27.22;97626.48;1707863;84;21056;-65
2022/03/21 10:34:18;;;;;;;12.90;8.77;;;;;;;9.67;26.59;97621.88;1708061;84;21021;-66
2022/03/21 10:37:09;;;;;;;12.10;8.27;;;;;;;9.72;31.07;97619.77;1707808;84;21076;-66
2022/03/21 10:39:39;;;;;;;10.97;8.10;;;;;;;9.95;30.26;97609.63;1707692;84;21064;-66
2022/03/21 10:42:09;;;;;;;12.07;8.20;;;;;;;10.16;29.00;97609.51;1707716;84;21543;-65
2022/03/21 10:44:38;;;;;;;11.43;8.20;;;;;;;10.13;26.04;97602.44;1708016;84;21017;-65
2022/03/21 10:47:08;;;;;;;12.57;8.10;;;;;;;10.28;27.98;97605.77;1707678;84;21098;-65
2022/03/21 10:49:44;;;;;;;11.73;8.23;;;;;;;10.30;29.40;97600.50;1708051;84;21017;-67
2022/03/21 10:52:21;;;;;;;15.33;9.60;;;;;;;10.24;26.03;97583.24;1708160;84;21072;-66
2022/03/21 10:54:50;;;;;;;11.10;8.30;;;;;;;10.21;25.47;97585.41;1707035;84;21079;-66
2022/03/21 10:57:36;;;;;;;10.50;7.83;;;;;;;10.26;27.34;97567.89;1706913;84;21033;-66
2022/03/21 11:00:18;;;;;;;11.87;6.63;;;;;;;10.40;27.93;97569.42;1707350;84;21044;-68
2022/03/21 11:03:09;;;;;;;12.17;7.77;;;;;;;10.15;24.00;97563.78;1707688;84;21562;-69
2022/03/21 11:05:39;;;;;;;12.30;8.70;;;;;;;10.43;24.79;97553.62;1707260;84;21527;-69
2022/03/21 11:08:08;;;;;;;13.27;8.10;;;;;;;10.76;26.91;97547.91;1707650;84;21107;-69
2022/03/21 11:10:36;;;;;;;12.67;8.50;;;;;;;11.20;24.82;97554.10;1707911;84;21072;-68
2022/03/21 11:13:06;;;;;;;13.13;9.13;;;;;;;11.66;26.55;97546.59;1707899;84;21550;-68
2022/03/21 11:15:36;;;;;;;12.77;8.50;;;;;;;12.25;25.81;97551.92;1707927;84;21049;-68
2022/03/21 11:18:05;;;;;;;11.67;9.00;;;;;;;12.82;25.94;97538.95;1708069;84;21291;-65
2022/03/21 11:20:33;;;;;;;14.95;9.68;;;;;;;13.22;24.45;97529.80;1706866;84;21566;-65
2022/03/21 11:23:01;;;;;;;13.55;10.00;;;;;;;13.48;23.00;97525.00;1708176;84;21049;-65
2022/03/21 11:25:36;;;;;;;14.85;9.83;;;;;;;13.97;24.16;97519.70;1713563;84;21051;-66
2022/03/21 11:28:16;;;;;;;16.95;10.28;;;;;;;14.39;22.79;97513.84;1715835;83;21052;-66
2022/03/21 11:31:23;;;;;;;12.93;9.98;;;;;;;14.43;20.30;97507.65;1715907;84;21044;-66
2022/03/21 11:33:55;;;;;;;13.88;10.45;;;;;;;14.79;20.65;97494.72;1715815;83;21539;-67
2022/03/21 11:36:24;;;;;;;13.20;8.73;;;;;;;15.18;21.38;97490.05;1715601;83;21062;-66
2022/03/21 11:39:00;;;;;;;16.12;10.50;;;;;;;15.20;20.60;97490.05;1715819;84;21084;-67
2022/03/21 11:41:31;;;;;;;13.15;10.30;;;;;;;15.71;21.09;97477.27;1716199;83;21534;-66
2022/03/21 11:44:18;;;;;;;13.32;9.83;;;;;;;15.75;19.13;97478.57;1716217;84;21033;-67
2022/03/21 11:46:38;;;;;;;14.43;10.08;;;;;;;15.53;20.12;97490.25;1712207;84;21033;-66
2022/03/21 11:49:22;;;;;;;13.98;9.83;;;;;;;15.71;19.62;97490.12;1670075;85;21020;-67